sensor_id;sensor_type;location;lat;lon;timestamp;pressure;altitude;pressure_sealevel;temperature;humidity
50394;BME280;36308;46.312;25.288;2023-03-16T00:01:14;95127.00;;;6.54;52.16
50394;BME280;36308;46.312;25.288;2023-03-16T00:03:40;95124.81;;;6.51;52.30
50394;BME280;36308;46.312;25.288;2023-03-16T00:06:05;95136.00;;;6.47;52.15
50394;BME280;36308;46.312;25.288;2023-03-16T00:08:31;95132.78;;;6.45;52.12
50394;BME280;36308;46.312;25.288;2023-03-16T00:10:57;95141.84;;;6.44;52.36
50394;BME280;36308;46.312;25.288;2023-03-16T00:13:23;95142.38;;;6.41;52.58
50394;BME280;36308;46.312;25.288;2023-03-16T00:15:54;95139.16;;;6.39;52.62
50394;BME280;36308;46.312;25.288;2023-03-16T00:18:20;95140.19;;;6.38;52.68
50394;BME280;36308;46.312;25.288;2023-03-16T00:20:53;95131.88;;;6.35;53.17
50394;BME280;36308;46.312;25.288;2023-03-16T00:23:19;95136.41;;;6.34;52.94
50394;BME280;36308;46.312;25.288;2023-03-16T00:25:54;95129.47;;;6.33;53.21
50394;BME280;36308;46.312;25.288;2023-03-16T00:28:21;95131.59;;;6.31;53.29
50394;BME280;36308;46.312;25.288;2023-03-16T00:30:47;95130.22;;;6.28;53.19
50394;BME280;36308;46.312;25.288;2023-03-16T00:33:12;95132.31;;;6.26;53.56
50394;BME280;36308;46.312;25.288;2023-03-16T00:35:37;95136.31;;;6.24;53.55
50394;BME280;36308;46.312;25.288;2023-03-16T00:38:03;95134.72;;;6.23;53.38
50394;BME280;36308;46.312;25.288;2023-03-16T00:40:29;95129.88;;;6.20;53.23
50394;BME280;36308;46.312;25.288;2023-03-16T00:42:55;95130.94;;;6.19;53.84
50394;BME280;36308;46.312;25.288;2023-03-16T00:45:22;95133.03;;;6.17;53.52
50394;BME280;36308;46.312;25.288;2023-03-16T00:47:47;95137.84;;;6.15;53.77
50394;BME280;36308;46.312;25.288;2023-03-16T00:50:13;95137.84;;;6.15;53.89
50394;BME280;36308;46.312;25.288;2023-03-16T00:52:40;95130.06;;;6.13;53.94
50394;BME280;36308;46.312;25.288;2023-03-16T00:55:07;95127.66;;;6.12;53.96
50394;BME280;36308;46.312;25.288;2023-03-16T00:57:33;95131.38;;;6.11;54.08
50394;BME280;36308;46.312;25.288;2023-03-16T00:59:58;95139.88;;;6.07;54.03
50394;BME280;36308;46.312;25.288;2023-03-16T01:02:24;95142.53;;;6.07;54.03
50394;BME280;36308;46.312;25.288;2023-03-16T01:04:52;95150.00;;;6.05;54.35
50394;BME280;36308;46.312;25.288;2023-03-16T01:07:19;95151.31;;;6.03;54.39
50394;BME280;36308;46.312;25.288;2023-03-16T01:09:46;95148.09;;;6.01;54.57
50394;BME280;36308;46.312;25.288;2023-03-16T01:12:17;95144.06;;;5.98;54.43
50394;BME280;36308;46.312;25.288;2023-03-16T01:14:43;95142.19;;;5.99;54.70
50394;BME280;36308;46.312;25.288;2023-03-16T01:17:12;95141.63;;;5.97;54.67
50394;BME280;36308;46.312;25.288;2023-03-16T01:19:39;95141.63;;;5.97;54.64
50394;BME280;36308;46.312;25.288;2023-03-16T01:22:06;95140.84;;;5.96;54.85
50394;BME280;36308;46.312;25.288;2023-03-16T01:24:33;95144.53;;;5.95;54.58
50394;BME280;36308;46.312;25.288;2023-03-16T01:27:01;95142.91;;;5.94;54.66
50394;BME280;36308;46.312;25.288;2023-03-16T01:29:27;95147.44;;;5.94;54.89
50394;BME280;36308;46.312;25.288;2023-03-16T01:31:53;95146.06;;;5.91;55.26
50394;BME280;36308;46.312;25.288;2023-03-16T01:34:20;95150.84;;;5.89;55.15
50394;BME280;36308;46.312;25.288;2023-03-16T01:36:47;95147.38;;;5.88;54.98
50394;BME280;36308;46.312;25.288;2023-03-16T01:39:14;95147.63;;;5.87;55.11
50394;BME280;36308;46.312;25.288;2023-03-16T01:41:41;95153.22;;;5.85;55.20
50394;BME280;36308;46.312;25.288;2023-03-16T01:44:12;95159.84;;;5.83;55.24
50394;BME280;36308;46.312;25.288;2023-03-16T01:46:38;95157.19;;;5.83;55.13
50394;BME280;36308;46.312;25.288;2023-03-16T01:49:10;95159.28;;;5.81;54.99
50394;BME280;36308;46.312;25.288;2023-03-16T01:51:42;95154.47;;;5.78;55.38
50394;BME280;36308;46.312;25.288;2023-03-16T01:59:26;95173.63;;;5.75;55.22
50394;BME280;36308;46.312;25.288;2023-03-16T02:01:52;95173.88;;;5.73;55.41
50394;BME280;36308;46.312;25.288;2023-03-16T02:04:28;95179.47;;;5.72;55.90
50394;BME280;36308;46.312;25.288;2023-03-16T02:06:56;95185.03;;;5.70;55.28
50394;BME280;36308;46.312;25.288;2023-03-16T02:09:23;95195.69;;;5.70;55.84
50394;BME280;36308;46.312;25.288;2023-03-16T02:11:52;95186.91;;;5.70;55.35
50394;BME280;36308;46.312;25.288;2023-03-16T02:14:19;95186.91;;;5.70;55.67
50394;BME280;36308;46.312;25.288;2023-03-16T02:16:44;95189.56;;;5.70;55.64
50394;BME280;36308;46.312;25.288;2023-03-16T02:19:30;95198.63;;;5.69;55.74
50394;BME280;36308;46.312;25.288;2023-03-16T02:22:02;95193.31;;;5.69;55.95
50394;BME280;36308;46.312;25.288;2023-03-16T02:24:29;95192.47;;;5.68;55.96
50394;BME280;36308;46.312;25.288;2023-03-16T02:26:58;95187.97;;;5.69;55.75
50394;BME280;36308;46.312;25.288;2023-03-16T02:32:49;95191.69;;;5.67;55.96
50394;BME280;36308;46.312;25.288;2023-03-16T02:35:17;95198.06;;;5.66;55.60
50394;BME280;36308;46.312;25.288;2023-03-16T02:37:43;95197.50;;;5.64;56.00
50394;BME280;36308;46.312;25.288;2023-03-16T02:40:19;95208.19;;;5.64;55.83
50394;BME280;36308;46.312;25.288;2023-03-16T02:42:55;95197.50;;;5.64;55.79
50394;BME280;36308;46.312;25.288;2023-03-16T02:45:26;95206.00;;;5.61;56.01
50394;BME280;36308;46.312;25.288;2023-03-16T02:47:53;95206.56;;;5.63;56.24
50394;BME280;36308;46.312;25.288;2023-03-16T02:50:19;95217.22;;;5.63;55.89
50394;BME280;36308;46.312;25.288;2023-03-16T02:52:45;95210.28;;;5.62;55.75
50394;BME280;36308;46.312;25.288;2023-03-16T02:55:13;95216.41;;;5.63;55.84
50394;BME280;36308;46.312;25.288;2023-03-16T02:57:38;95226.28;;;5.62;55.80
50394;BME280;36308;46.312;25.288;2023-03-16T03:00:04;95226.28;;;5.62;55.80
50394;BME280;36308;46.312;25.288;2023-03-16T03:02:36;95228.13;;;5.62;55.88
50394;BME280;36308;46.312;25.288;2023-03-16T03:05:01;95233.22;;;5.63;55.75
50394;BME280;36308;46.312;25.288;2023-03-16T03:07:27;95236.97;;;5.62;55.53
50394;BME280;36308;46.312;25.288;2023-03-16T03:09:56;95238.56;;;5.63;55.50
50394;BME280;36308;46.312;25.288;2023-03-16T03:12:22;95241.22;;;5.63;55.45
50394;BME280;36308;46.312;25.288;2023-03-16T03:14:47;95235.88;;;5.63;55.29
50394;BME280;36308;46.312;25.288;2023-03-16T03:17:13;95229.53;;;5.64;55.40
50394;BME280;36308;46.312;25.288;2023-03-16T03:19:38;95232.19;;;5.64;54.93
50394;BME280;36308;46.312;25.288;2023-03-16T03:22:04;95232.19;;;5.64;55.14
50394;BME280;36308;46.312;25.288;2023-03-16T03:24:31;95232.19;;;5.64;54.82
50394;BME280;36308;46.312;25.288;2023-03-16T03:26:57;95227.88;;;5.63;54.73
50394;BME280;36308;46.312;25.288;2023-03-16T03:29:26;95234.03;;;5.64;54.49
50394;BME280;36308;46.312;25.288;2023-03-16T03:32:04;95236.97;;;5.62;54.76
50394;BME280;36308;46.312;25.288;2023-03-16T03:34:31;95233.47;;;5.62;54.84
50394;BME280;36308;46.312;25.288;2023-03-16T03:36:57;95243.88;;;5.63;54.34
50394;BME280;36308;46.312;25.288;2023-03-16T03:39:23;95243.88;;;5.63;54.20
50394;BME280;36308;46.312;25.288;2023-03-16T03:41:49;95240.19;;;5.64;54.26
50394;BME280;36308;46.312;25.288;2023-03-16T03:44:19;95237.50;;;5.64;54.33
50394;BME280;36308;46.312;25.288;2023-03-16T03:46:45;95239.13;;;5.65;53.91
50394;BME280;36308;46.312;25.288;2023-03-16T03:49:11;95238.06;;;5.66;54.21
50394;BME280;36308;46.312;25.288;2023-03-16T03:51:37;95240.75;;;5.66;54.00
50394;BME280;36308;46.312;25.288;2023-03-16T03:54:02;95238.88;;;5.67;54.16
50394;BME280;36308;46.312;25.288;2023-03-16T03:56:28;95241.31;;;5.69;53.72
50394;BME280;36308;46.312;25.288;2023-03-16T03:58:53;95242.34;;;5.67;54.08
50394;BME280;36308;46.312;25.288;2023-03-16T04:01:19;95247.69;;;5.67;53.69
50394;BME280;36308;46.312;25.288;2023-03-16T04:03:45;95245.81;;;5.68;54.08
50394;BME280;36308;46.312;25.288;2023-03-16T04:06:10;95253.81;;;5.68;53.47
50394;BME280;36308;46.312;25.288;2023-03-16T04:08:36;95258.91;;;5.70;53.50
50394;BME280;36308;46.312;25.288;2023-03-16T04:11:02;95264.25;;;5.70;53.38
50394;BME280;36308;46.312;25.288;2023-03-16T04:13:27;95268.78;;;5.69;53.15
50394;BME280;36308;46.312;25.288;2023-03-16T04:15:57;95266.91;;;5.70;53.12
50394;BME280;36308;46.312;25.288;2023-03-16T04:18:24;95271.44;;;5.69;53.23
50394;BME280;36308;46.312;25.288;2023-03-16T04:20:50;95276.50;;;5.71;52.85
50394;BME280;36308;46.312;25.288;2023-03-16T04:23:18;95272.25;;;5.70;52.68
50394;BME280;36308;46.312;25.288;2023-03-16T04:25:43;95278.66;;;5.69;52.64
50394;BME280;36308;46.312;25.288;2023-03-16T04:28:09;95282.34;;;5.67;52.69
50394;BME280;36308;46.312;25.288;2023-03-16T04:30:35;95283.97;;;5.69;52.86
50394;BME280;36308;46.312;25.288;2023-03-16T04:33:00;95295.44;;;5.69;52.33
50394;BME280;36308;46.312;25.288;2023-03-16T04:35:26;95285.81;;;5.68;52.65
50394;BME280;36308;46.312;25.288;2023-03-16T04:37:51;95291.41;;;5.66;52.51
50394;BME280;36308;46.312;25.288;2023-03-16T04:40:17;95289.78;;;5.65;52.50
50394;BME280;36308;46.312;25.288;2023-03-16T04:42:45;95294.31;;;5.65;52.27
50394;BME280;36308;46.312;25.288;2023-03-16T04:45:11;95301.53;;;5.64;51.86
50394;BME280;36308;46.312;25.288;2023-03-16T04:47:38;95299.31;;;5.61;51.48
50394;BME280;36308;46.312;25.288;2023-03-16T04:50:05;95313.72;;;5.60;51.49
50394;BME280;36308;46.312;25.288;2023-03-16T04:52:31;95311.28;;;5.59;51.59
50394;BME280;36308;46.312;25.288;2023-03-16T04:54:57;95314.19;;;5.57;51.44
50394;BME280;36308;46.312;25.288;2023-03-16T04:57:22;95317.94;;;5.56;51.50
50394;BME280;36308;46.312;25.288;2023-03-16T04:59:48;95313.06;;;5.53;51.61
50394;BME280;36308;46.312;25.288;2023-03-16T05:02:14;95318.41;;;5.53;51.28
50394;BME280;36308;46.312;25.288;2023-03-16T05:04:41;95327.47;;;5.52;51.56
50394;BME280;36308;46.312;25.288;2023-03-16T05:07:06;95331.97;;;5.52;51.37
50394;BME280;36308;46.312;25.288;2023-03-16T05:09:32;95335.13;;;5.49;51.69
50394;BME280;36308;46.312;25.288;2023-03-16T05:11:57;95330.84;;;5.47;51.74
50394;BME280;36308;46.312;25.288;2023-03-16T05:14:23;95331.66;;;5.48;51.84
50394;BME280;36308;46.312;25.288;2023-03-16T05:16:48;95344.44;;;5.46;51.80
50394;BME280;36308;46.312;25.288;2023-03-16T05:19:14;95338.25;;;5.45;51.95
50394;BME280;36308;46.312;25.288;2023-03-16T05:21:39;95347.31;;;5.44;51.51
50394;BME280;36308;46.312;25.288;2023-03-16T05:24:05;95351.28;;;5.42;52.03
50394;BME280;36308;46.312;25.288;2023-03-16T05:26:31;95350.47;;;5.41;51.75
50394;BME280;36308;46.312;25.288;2023-03-16T05:28:57;95363.00;;;5.41;52.12
50394;BME280;36308;46.312;25.288;2023-03-16T05:31:23;95365.66;;;5.41;51.59
50394;BME280;36308;46.312;25.288;2023-03-16T05:33:52;95371.22;;;5.39;52.25
50394;BME280;36308;46.312;25.288;2023-03-16T05:36:18;95377.38;;;5.40;52.17
50394;BME280;36308;46.312;25.288;2023-03-16T05:38:44;95380.06;;;5.40;52.05
50394;BME280;36308;46.312;25.288;2023-03-16T05:41:10;95375.75;;;5.39;52.00
50394;BME280;36308;46.312;25.288;2023-03-16T05:43:36;95388.03;;;5.40;51.91
50394;BME280;36308;46.312;25.288;2023-03-16T05:46:02;95379.47;;;5.38;51.67
50394;BME280;36308;46.312;25.288;2023-03-16T05:48:28;95381.88;;;5.39;51.50
50394;BME280;36308;46.312;25.288;2023-03-16T05:50:53;95383.97;;;5.37;51.29
50394;BME280;36308;46.312;25.288;2023-03-16T05:53:19;95385.84;;;5.37;51.79
50394;BME280;36308;46.312;25.288;2023-03-16T05:55:50;95383.97;;;5.37;51.53
50394;BME280;36308;46.312;25.288;2023-03-16T05:58:16;95399.16;;;5.37;51.44
50394;BME280;36308;46.312;25.288;2023-03-16T06:00:42;95386.91;;;5.36;51.58
50394;BME280;36308;46.312;25.288;2023-03-16T06:03:07;95403.69;;;5.36;51.06
50394;BME280;36308;46.312;25.288;2023-03-16T06:05:33;95404.50;;;5.37;51.81
50394;BME280;36308;46.312;25.288;2023-03-16T06:07:58;95411.47;;;5.38;51.65
50394;BME280;36308;46.312;25.288;2023-03-16T06:10:24;95413.88;;;5.39;51.16
50394;BME280;36308;46.312;25.288;2023-03-16T06:12:50;95425.38;;;5.40;51.35
50394;BME280;36308;46.312;25.288;2023-03-16T06:15:17;95426.97;;;5.41;51.49
50394;BME280;36308;46.312;25.288;2023-03-16T06:17:42;95433.38;;;5.40;50.95
50394;BME280;36308;46.312;25.288;2023-03-16T06:20:11;95440.88;;;5.43;51.18
50394;BME280;36308;46.312;25.288;2023-03-16T06:22:38;95447.84;;;5.44;50.83
50394;BME280;36308;46.312;25.288;2023-03-16T06:25:04;95448.63;;;5.44;50.97
50394;BME280;36308;46.312;25.288;2023-03-16T06:27:30;95448.13;;;5.47;51.05
50394;BME280;36308;46.312;25.288;2023-03-16T06:29:55;95448.97;;;5.48;51.17
50394;BME280;36308;46.312;25.288;2023-03-16T06:32:21;95454.88;;;5.50;51.12
50394;BME280;36308;46.312;25.288;2023-03-16T06:34:46;95464.47;;;5.51;51.19
50394;BME280;36308;46.312;25.288;2023-03-16T06:37:12;95461.09;;;5.56;51.26
50394;BME280;36308;46.312;25.288;2023-03-16T06:39:38;95468.84;;;5.57;51.25
50394;BME280;36308;46.312;25.288;2023-03-16T06:42:03;95473.72;;;5.60;51.34
50394;BME280;36308;46.312;25.288;2023-03-16T06:44:29;95476.13;;;5.62;51.66
50394;BME280;36308;46.312;25.288;2023-03-16T06:46:56;95481.22;;;5.63;51.26
50394;BME280;36308;46.312;25.288;2023-03-16T06:49:22;95491.44;;;5.66;51.61
50394;BME280;36308;46.312;25.288;2023-03-16T06:51:48;95491.16;;;5.68;51.76
50394;BME280;36308;46.312;25.288;2023-03-16T06:54:13;95492.00;;;5.69;51.57
50394;BME280;36308;46.312;25.288;2023-03-16T06:56:39;95506.72;;;5.71;51.44
50394;BME280;36308;46.312;25.288;2023-03-16T06:59:05;95505.41;;;5.74;51.67
50394;BME280;36308;46.312;25.288;2023-03-16T07:01:30;95512.34;;;5.75;51.51
50394;BME280;36308;46.312;25.288;2023-03-16T07:03:56;95515.03;;;5.75;51.74
50394;BME280;36308;46.312;25.288;2023-03-16T07:06:21;95524.66;;;5.76;51.23
50394;BME280;36308;46.312;25.288;2023-03-16T07:08:47;95534.25;;;5.77;51.48
50394;BME280;36308;46.312;25.288;2023-03-16T07:11:12;95524.66;;;5.76;51.64
50394;BME280;36308;46.312;25.288;2023-03-16T07:13:39;95537.75;;;5.77;51.50
50394;BME280;36308;46.312;25.288;2023-03-16T07:16:05;95528.69;;;5.78;51.39
50394;BME280;36308;46.312;25.288;2023-03-16T07:18:31;95539.94;;;5.80;51.45
50394;BME280;36308;46.312;25.288;2023-03-16T07:20:57;95543.41;;;5.81;51.50
50394;BME280;36308;46.312;25.288;2023-03-16T07:23:23;95541.31;;;5.83;51.73
50394;BME280;36308;46.312;25.288;2023-03-16T07:25:50;95550.44;;;5.87;52.02
50394;BME280;36308;46.312;25.288;2023-03-16T07:28:17;95548.63;;;5.87;52.25
50394;BME280;36308;46.312;25.288;2023-03-16T07:30:44;95560.91;;;5.88;51.98
50394;BME280;36308;46.312;25.288;2023-03-16T07:33:10;95561.47;;;5.91;52.32
50394;BME280;36308;46.312;25.288;2023-03-16T07:35:36;95561.22;;;5.92;52.43
50394;BME280;36308;46.312;25.288;2023-03-16T07:38:02;95576.19;;;5.93;52.45
50394;BME280;36308;46.312;25.288;2023-03-16T07:40:28;95556.84;;;5.98;52.26
50394;BME280;36308;46.312;25.288;2023-03-16T07:42:53;95577.91;;;5.99;52.54
50394;BME280;36308;46.312;25.288;2023-03-16T07:45:19;95581.16;;;6.01;52.58
50394;BME280;36308;46.312;25.288;2023-03-16T07:47:44;95573.72;;;6.03;53.01
50394;BME280;36308;46.312;25.288;2023-03-16T07:50:10;95586.03;;;6.04;52.79
50394;BME280;36308;46.312;25.288;2023-03-16T07:52:37;95579.41;;;6.07;52.84
50394;BME280;36308;46.312;25.288;2023-03-16T07:55:03;95579.75;;;6.11;52.63
50394;BME280;36308;46.312;25.288;2023-03-16T07:57:29;95585.66;;;6.13;52.70
50394;BME280;36308;46.312;25.288;2023-03-16T07:59:55;95591.56;;;6.15;52.73
50394;BME280;36308;46.312;25.288;2023-03-16T08:02:21;95591.06;;;6.18;52.78
50394;BME280;36308;46.312;25.288;2023-03-16T08:04:47;95609.28;;;6.21;53.04
50394;BME280;36308;46.312;25.288;2023-03-16T08:07:13;95604.50;;;6.23;53.45
50394;BME280;36308;46.312;25.288;2023-03-16T08:09:39;95606.91;;;6.24;52.84
50394;BME280;36308;46.312;25.288;2023-03-16T08:12:06;95602.97;;;6.27;53.38
50394;BME280;36308;46.312;25.288;2023-03-16T08:14:32;95605.66;;;6.27;53.12
50394;BME280;36308;46.312;25.288;2023-03-16T08:16:59;95615.50;;;6.26;53.58
50394;BME280;36308;46.312;25.288;2023-03-16T08:19:26;95621.16;;;6.30;53.75
50394;BME280;36308;46.312;25.288;2023-03-16T08:21:52;95627.56;;;6.29;53.94
50394;BME280;36308;46.312;25.288;2023-03-16T08:24:18;95630.25;;;6.29;54.03
50394;BME280;36308;46.312;25.288;2023-03-16T08:26:43;95639.28;;;6.28;53.92
50394;BME280;36308;46.312;25.288;2023-03-16T08:29:09;95636.06;;;6.26;54.16
50394;BME280;36308;46.312;25.288;2023-03-16T08:31:35;95636.06;;;6.26;54.12
50394;BME280;36308;46.312;25.288;2023-03-16T08:34:01;95639.78;;;6.25;54.10
50394;BME280;36308;46.312;25.288;2023-03-16T08:36:27;95642.69;;;6.23;54.50
50394;BME280;36308;46.312;25.288;2023-03-16T08:38:53;95650.94;;;6.22;54.74
50394;BME280;36308;46.312;25.288;2023-03-16T08:41:20;95648.75;;;6.19;54.47
50394;BME280;36308;46.312;25.288;2023-03-16T08:43:46;95653.50;;;6.17;55.13
50394;BME280;36308;46.312;25.288;2023-03-16T08:46:11;95654.53;;;6.16;54.92
50394;BME280;36308;46.312;25.288;2023-03-16T08:48:40;95651.88;;;6.16;55.16
50394;BME280;36308;46.312;25.288;2023-03-16T08:51:07;95651.06;;;6.15;55.41
50394;BME280;36308;46.312;25.288;2023-03-16T08:53:34;95661.75;;;6.15;55.45
50394;BME280;36308;46.312;25.288;2023-03-16T08:56:09;95659.88;;;6.16;55.28
50394;BME280;36308;46.312;25.288;2023-03-16T08:58:37;95664.19;;;6.17;55.44
50394;BME280;36308;46.312;25.288;2023-03-16T09:01:04;95657.00;;;6.17;55.38
50394;BME280;36308;46.312;25.288;2023-03-16T09:03:34;95662.09;;;6.19;55.40
50394;BME280;36308;46.312;25.288;2023-03-16T09:06:05;95666.13;;;6.21;55.78
50394;BME280;36308;46.312;25.288;2023-03-16T09:08:32;95664.84;;;6.24;55.57
50394;BME280;36308;46.312;25.288;2023-03-16T09:11:06;95670.19;;;6.24;55.58
50394;BME280;36308;46.312;25.288;2023-03-16T09:13:33;95677.16;;;6.25;55.38
50394;BME280;36308;46.312;25.288;2023-03-16T09:15:59;95683.66;;;6.29;55.81
50394;BME280;36308;46.312;25.288;2023-03-16T09:18:25;95680.63;;;6.25;55.43
50394;BME280;36308;46.312;25.288;2023-03-16T09:20:58;95684.22;;;6.31;55.52
50394;BME280;36308;46.312;25.288;2023-03-16T09:23:26;95692.78;;;6.33;55.89
50394;BME280;36308;46.312;25.288;2023-03-16T09:25:52;95700.31;;;6.36;55.93
50394;BME280;36308;46.312;25.288;2023-03-16T09:28:21;95700.66;;;6.40;56.11
50394;BME280;36308;46.312;25.288;2023-03-16T09:30:46;95707.38;;;6.42;55.65
50394;BME280;36308;46.312;25.288;2023-03-16T09:33:14;95707.94;;;6.44;55.87
50394;BME280;36308;46.312;25.288;2023-03-16T09:35:39;95713.28;;;6.44;55.81
50394;BME280;36308;46.312;25.288;2023-03-16T09:38:05;95712.47;;;6.44;55.75
50394;BME280;36308;46.312;25.288;2023-03-16T09:40:32;95719.69;;;6.43;55.45
50394;BME280;36308;46.312;25.288;2023-03-16T09:48:38;95728.59;;;6.49;56.56
50394;BME280;36308;46.312;25.288;2023-03-16T09:51:11;95735.34;;;6.52;56.88
50394;BME280;36308;46.312;25.288;2023-03-16T09:53:38;95735.63;;;6.55;57.02
50394;BME280;36308;46.312;25.288;2023-03-16T09:56:19;95739.69;;;6.58;57.07
50394;BME280;36308;46.312;25.288;2023-03-16T09:58:46;95746.16;;;6.62;57.21
50394;BME280;36308;46.312;25.288;2023-03-16T10:07:00;95749.75;;;6.67;56.90
50394;BME280;36308;46.312;25.288;2023-03-16T10:09:32;95753.56;;;6.72;56.96
50394;BME280;36308;46.312;25.288;2023-03-16T10:12:01;95748.00;;;6.73;56.99
50394;BME280;36308;46.312;25.288;2023-03-16T10:17:28;95755.09;;;6.67;56.45
50394;BME280;36308;46.312;25.288;2023-03-16T10:20:06;95758.00;;;6.66;56.56
50394;BME280;36308;46.312;25.288;2023-03-16T10:22:38;95759.06;;;6.65;56.48
50394;BME280;36308;46.312;25.288;2023-03-16T10:27:38;95763.34;;;6.66;56.71
50394;BME280;36308;46.312;25.288;2023-03-16T10:32:56;95767.53;;;6.62;56.33
50394;BME280;36308;46.312;25.288;2023-03-16T10:35:42;95771.28;;;6.61;57.18
50394;BME280;36308;46.312;25.288;2023-03-16T10:40:55;95760.97;;;6.53;57.05
50394;BME280;36308;46.312;25.288;2023-03-16T10:43:24;95769.63;;;6.60;56.86
50394;BME280;36308;46.312;25.288;2023-03-16T10:45:50;95777.41;;;6.61;57.65
50394;BME280;36308;46.312;25.288;2023-03-16T10:48:18;95777.75;;;6.65;57.44
50394;BME280;36308;46.312;25.288;2023-03-16T10:50:50;95781.00;;;6.67;57.15
50394;BME280;36308;46.312;25.288;2023-03-16T10:53:22;95758.38;;;6.58;57.09
50394;BME280;36308;46.312;25.288;2023-03-16T10:55:59;95774.84;;;6.66;57.10
50394;BME280;36308;46.312;25.288;2023-03-16T10:58:31;95774.59;;;6.68;56.97
50394;BME280;36308;46.312;25.288;2023-03-16T11:00:58;95772.06;;;6.61;56.95
50394;BME280;36308;46.312;25.288;2023-03-16T11:03:30;95789.03;;;6.67;57.19
50394;BME280;36308;46.312;25.288;2023-03-16T11:06:02;95784.72;;;6.66;57.10
50394;BME280;36308;46.312;25.288;2023-03-16T11:08:36;95790.06;;;6.66;57.21
50394;BME280;36308;46.312;25.288;2023-03-16T11:11:13;95789.47;;;6.64;57.13
50394;BME280;36308;46.312;25.288;2023-03-16T11:13:46;95791.59;;;6.62;56.99
50394;BME280;36308;46.312;25.288;2023-03-16T11:16:39;95784.06;;;6.59;57.18
50394;BME280;36308;46.312;25.288;2023-03-16T11:19:16;95785.66;;;6.60;56.89
50394;BME280;36308;46.312;25.288;2023-03-16T11:24:47;95782.41;;;6.58;57.65
50394;BME280;36308;46.312;25.288;2023-03-16T11:27:23;95780.81;;;6.57;57.44
50394;BME280;36308;46.312;25.288;2023-03-16T11:30:13;95782.41;;;6.58;57.58
50394;BME280;36308;46.312;25.288;2023-03-16T11:32:42;95788.34;;;6.60;57.59
50394;BME280;36308;46.312;25.288;2023-03-16T11:35:14;95783.56;;;6.62;57.89
50394;BME280;36308;46.312;25.288;2023-03-16T11:38:17;95789.47;;;6.64;57.83
50394;BME280;36308;46.312;25.288;2023-03-16T11:41:01;95787.38;;;6.66;57.87
50394;BME280;36308;46.312;25.288;2023-03-16T11:46:33;95787.16;;;6.67;57.89
50394;BME280;36308;46.312;25.288;2023-03-16T11:49:39;95793.31;;;6.68;57.58
50394;BME280;36308;46.312;25.288;2023-03-16T12:10:24;95796.13;;;6.90;57.82
50394;BME280;36308;46.312;25.288;2023-03-16T12:15:43;95790.47;;;7.03;57.41
50394;BME280;36308;46.312;25.288;2023-03-16T12:23:53;95807.69;;;7.24;57.50
50394;BME280;36308;46.312;25.288;2023-03-16T12:26:23;95807.75;;;7.29;57.06
50394;BME280;36308;46.312;25.288;2023-03-16T12:28:52;95806.44;;;7.32;56.99
50394;BME280;36308;46.312;25.288;2023-03-16T12:31:24;95801.78;;;7.39;57.12
50394;BME280;36308;46.312;25.288;2023-03-16T12:39:23;95806.56;;;7.54;56.48
50394;BME280;36308;46.312;25.288;2023-03-16T12:47:18;95807.75;;;7.63;54.75
50394;BME280;36308;46.312;25.288;2023-03-16T12:49:48;95808.31;;;7.65;54.65
50394;BME280;36308;46.312;25.288;2023-03-16T12:52:15;95807.03;;;7.68;53.91
50394;BME280;36308;46.312;25.288;2023-03-16T12:55:06;95805.91;;;7.64;53.60
50394;BME280;36308;46.312;25.288;2023-03-16T12:57:32;95801.34;;;7.64;53.63
50394;BME280;36308;46.312;25.288;2023-03-16T12:59:59;95814.75;;;7.64;53.21
50394;BME280;36308;46.312;25.288;2023-03-16T13:02:31;95824.38;;;7.65;53.62
50394;BME280;36308;46.312;25.288;2023-03-16T13:05:09;95823.91;;;7.68;53.66
50394;BME280;36308;46.312;25.288;2023-03-16T13:07:36;95816.44;;;7.71;53.34
50394;BME280;36308;46.312;25.288;2023-03-16T13:10:08;95822.13;;;7.74;53.26
50394;BME280;36308;46.312;25.288;2023-03-16T13:12:39;95823.50;;;7.77;52.24
50394;BME280;36308;46.312;25.288;2023-03-16T13:20:56;95823.88;;;7.85;52.47
50394;BME280;36308;46.312;25.288;2023-03-16T13:26:17;95832.25;;;7.89;52.36
50394;BME280;36308;46.312;25.288;2023-03-16T13:28:51;95837.31;;;7.90;51.96
50394;BME280;36308;46.312;25.288;2023-03-16T13:33:48;95836.59;;;7.95;52.24
50394;BME280;36308;46.312;25.288;2023-03-16T13:36:16;95833.44;;;7.98;51.87
50394;BME280;36308;46.312;25.288;2023-03-16T13:38:42;95839.91;;;8.02;51.96
50394;BME280;36308;46.312;25.288;2023-03-16T13:41:10;95846.41;;;8.06;52.21
50394;BME280;36308;46.312;25.288;2023-03-16T13:43:41;95839.72;;;8.09;51.75
50394;BME280;36308;46.312;25.288;2023-03-16T13:46:19;95846.50;;;8.12;51.48
50394;BME280;36308;46.312;25.288;2023-03-16T13:48:47;95854.53;;;8.12;51.86
50394;BME280;36308;46.312;25.288;2023-03-16T13:51:17;95855.56;;;8.10;51.38
50394;BME280;36308;46.312;25.288;2023-03-16T13:53:46;95867.34;;;8.09;51.53
50394;BME280;36308;46.312;25.288;2023-03-16T13:56:14;95859.78;;;8.06;51.84
50394;BME280;36308;46.312;25.288;2023-03-16T13:58:43;95864.56;;;8.04;52.33
50394;BME280;36308;46.312;25.288;2023-03-16T14:01:24;95867.50;;;8.03;52.66
50394;BME280;36308;46.312;25.288;2023-03-16T14:03:51;95872.53;;;7.99;52.52
50394;BME280;36308;46.312;25.288;2023-03-16T14:06:23;95873.03;;;7.96;53.15
50394;BME280;36308;46.312;25.288;2023-03-16T14:08:53;95877.25;;;7.92;53.24
50394;BME280;36308;46.312;25.288;2023-03-16T14:11:22;95876.09;;;7.88;53.44
50394;BME280;36308;46.312;25.288;2023-03-16T14:13:55;95881.16;;;7.84;53.37
50394;BME280;36308;46.312;25.288;2023-03-16T14:16:23;95881.28;;;7.78;53.75
50394;BME280;36308;46.312;25.288;2023-03-16T14:19:05;95885.50;;;7.74;54.21
50394;BME280;36308;46.312;25.288;2023-03-16T14:21:33;95884.38;;;7.69;54.49
50394;BME280;36308;46.312;25.288;2023-03-16T14:24:01;95893.94;;;7.65;54.58
50394;BME280;36308;46.312;25.288;2023-03-16T14:26:45;95893.63;;;7.62;54.56
50394;BME280;36308;46.312;25.288;2023-03-16T14:29:25;95898.66;;;7.58;55.20
50394;BME280;36308;46.312;25.288;2023-03-16T14:31:51;95885.16;;;7.53;54.66